Terminal Aerodrome Forecast
Issued by NWS

Home | Current Version | Previous Version | Text Only | Print | Product List | Glossary On
Versions: 1 2 3 4 5 6 7 8 9 10 11 12 13 14 15 16 17 18 19 20 21 22 23 24 25 26 27 28 29
000
FTUS45 KTWC 310500
TAFOLS
TAF
KOLS 310520Z 3106/0106 VRB04KT P6SM SCT090 BKN200
     FM311900 24009KT P6SM VCSH SCT100
     FM010400 VRB05KT P6SM SCT100 BKN200=

USA.gov is the U.S. government's official web portal to all federal, state and local government web resources and services.